Time;durP1;ratioP1;P1;durP2;ratioP2;P2;SDS_P1;SDS_P2;PMS_P1;PMS_P2;Temp;Humidity;BMP_temperature;BMP_pressure;BME280_temperature;BME280_humidity;BME280_pressure;Samples;Min_cycle;Max_cycle;Signal;HPM_P1;HPM_P2
2023/10/04 00:01:31;;;;;;;9.48;2.70;;;12.50;93.60;;;;;;5084143;28;20046;-49
2023/10/04 00:03:58;;;;;;;16.80;3.17;;;12.60;93.70;;;;;;5092340;28;20035;-52
2023/10/04 00:06:27;;;;;;;11.10;2.75;;;12.60;93.80;;;;;;5093674;28;20028;-50
2023/10/04 00:08:55;;;;;;;8.38;2.30;;;12.60;93.80;;;;;;5075932;28;20028;-51
2023/10/04 00:11:22;;;;;;;11.10;3.75;;;12.60;93.80;;;;;;5094177;28;20093;-51
2023/10/04 00:13:51;;;;;;;6.78;2.20;;;12.60;93.80;;;;;;5092335;28;20031;-49
2023/10/04 00:16:22;;;;;;;12.10;2.83;;;12.60;93.70;;;;;;5094039;28;20059;-53
2023/10/04 00:18:49;;;;;;;7.88;2.58;;;12.50;93.70;;;;;;5093722;28;20491;-52
2023/10/04 00:21:17;;;;;;;11.63;3.03;;;12.60;93.80;;;;;;5088109;28;20040;-49
2023/10/04 00:23:47;;;;;;;7.03;2.08;;;12.60;93.70;;;;;;5082319;28;20035;-52
2023/10/04 00:26:14;;;;;;;8.70;2.38;;;12.50;93.70;;;;;;5086847;28;20059;-54
2023/10/04 00:28:42;;;;;;;13.10;2.70;;;12.60;93.70;;;;;;5081951;28;20051;-51
2023/10/04 00:31:10;;;;;;;13.05;4.18;;;12.60;93.70;;;;;;5093390;28;20051;-50
2023/10/04 00:33:39;;;;;;;14.00;2.67;;;12.60;93.60;;;;;;5093541;28;20098;-53
2023/10/04 00:36:08;;;;;;;10.23;2.78;;;12.50;93.70;;;;;;5079072;28;20098;-47
2023/10/04 00:38:37;;;;;;;11.40;2.42;;;12.50;93.70;;;;;;5093350;28;20024;-51
2023/10/04 00:41:04;;;;;;;11.23;3.83;;;12.50;93.80;;;;;;5102043;28;20460;-50
2023/10/04 00:43:31;;;;;;;11.93;2.85;;;12.50;93.80;;;;;;5084765;28;20025;-48
2023/10/04 00:45:58;;;;;;;11.70;2.50;;;12.60;93.90;;;;;;5068860;28;20106;-49
2023/10/04 00:48:29;;;;;;;11.48;3.05;;;12.60;94.00;;;;;;5066915;28;20037;-50
2023/10/04 00:50:59;;;;;;;7.20;2.50;;;12.70;94.10;;;;;;5052539;28;20029;-47
2023/10/04 00:53:26;;;;;;;10.68;3.55;;;12.70;94.00;;;;;;5066060;28;20060;-48
2023/10/04 00:55:54;;;;;;;13.40;2.53;;;12.60;94.00;;;;;;5052718;28;20029;-50
2023/10/04 00:58:32;;;;;;;11.23;3.10;;;12.60;93.90;;;;;;5072398;28;20024;-49
2023/10/04 01:00:59;;;;;;;11.90;3.17;;;12.60;93.90;;;;;;5062029;28;20060;-50
2023/10/04 01:03:30;;;;;;;9.38;2.28;;;12.60;93.80;;;;;;5072795;28;20032;-52
2023/10/04 01:06:01;;;;;;;9.27;2.83;;;12.50;93.70;;;;;;5056841;28;20107;-49
2023/10/04 01:08:28;;;;;;;10.90;2.83;;;12.50;93.70;;;;;;5070435;28;20032;-48
2023/10/04 01:10:58;;;;;;;10.70;2.95;;;12.50;93.70;;;;;;5072905;28;20032;-59
2023/10/04 01:13:29;;;;;;;14.23;3.65;;;12.50;93.70;;;;;;5064970;28;20025;-57
2023/10/04 01:15:55;;;;;;;8.90;2.75;;;12.50;93.90;;;;;;5072300;28;20021;-53
2023/10/04 01:18:25;;;;;;;9.27;3.47;;;12.50;94.00;;;;;;5061641;28;20025;-54
2023/10/04 01:20:55;;;;;;;12.18;3.20;;;12.60;94.10;;;;;;5052388;28;20362;-50
2023/10/04 01:23:24;;;;;;;12.77;2.70;;;12.50;94.00;;;;;;5067092;28;20473;-53
2023/10/04 01:25:52;;;;;;;10.32;2.33;;;12.50;94.10;;;;;;5068244;28;20454;-55
2023/10/04 01:28:27;;;;;;;9.80;2.90;;;12.50;94.20;;;;;;5054149;28;20039;-53
2023/10/04 01:30:55;;;;;;;8.68;2.67;;;12.50;94.10;;;;;;5070900;28;20036;-53
2023/10/04 01:33:22;;;;;;;11.90;3.65;;;12.50;94.10;;;;;;5071334;28;20369;-52
2023/10/04 01:35:56;;;;;;;11.15;3.53;;;12.50;94.10;;;;;;5072318;28;20039;-51
2023/10/04 01:38:27;;;;;;;10.27;2.58;;;12.50;94.10;;;;;;5055348;28;20036;-53
2023/10/04 01:40:56;;;;;;;18.45;3.35;;;12.50;94.20;;;;;;5064815;28;20445;-51
2023/10/04 01:43:27;;;;;;;14.55;3.58;;;12.50;94.10;;;;;;5070901;28;20025;-53
2023/10/04 01:46:12;;;;;;;8.32;2.65;;;12.40;94.10;;;;;;5074368;28;20060;-51
2023/10/04 01:48:37;;;;;;;13.20;3.33;;;12.40;94.10;;;;;;5087430;28;20028;-53
2023/10/04 01:51:07;;;;;;;15.15;3.40;;;12.40;94.00;;;;;;5092079;28;20036;-49
2023/10/04 01:53:34;;;;;;;16.20;3.28;;;12.40;93.90;;;;;;5086527;28;20029;-49
2023/10/04 01:56:06;;;;;;;12.05;2.85;;;12.30;94.00;;;;;;5092240;28;20035;-51
2023/10/04 01:58:37;;;;;;;14.20;3.50;;;12.30;94.00;;;;;;5075175;28;20044;-57
2023/10/04 02:01:06;;;;;;;10.55;2.78;;;12.40;94.20;;;;;;5090317;28;20063;-57
2023/10/04 02:03:33;;;;;;;9.48;2.40;;;12.40;94.30;;;;;;5092051;28;20081;-57
2023/10/04 02:06:04;;;;;;;11.20;3.00;;;12.40;94.30;;;;;;5091715;28;20107;-54
2023/10/04 02:08:32;;;;;;;12.30;3.55;;;12.50;94.30;;;;;;5063546;28;20040;-55
2023/10/04 02:11:03;;;;;;;27.95;3.75;;;12.40;94.20;;;;;;5054949;28;20024;-51
2023/10/04 02:13:32;;;;;;;10.38;3.28;;;12.40;94.20;;;;;;5054283;28;20047;-51
2023/10/04 02:16:02;;;;;;;12.20;3.92;;;12.40;94.30;;;;;;5079985;28;20016;-53
2023/10/04 02:18:28;;;;;;;8.18;2.35;;;12.50;94.40;;;;;;5091800;28;20032;-52
2023/10/04 02:20:57;;;;;;;8.45;3.33;;;12.50;94.40;;;;;;5091201;28;20054;-51
2023/10/04 02:23:23;;;;;;;9.13;2.85;;;12.50;94.40;;;;;;5081483;28;20024;-58
2023/10/04 02:25:52;;;;;;;11.75;3.30;;;12.60;94.40;;;;;;5058733;28;20028;-55
2023/10/04 02:28:22;;;;;;;13.65;2.88;;;12.60;94.50;;;;;;5092019;28;20633;-58
2023/10/04 02:30:50;;;;;;;19.25;5.13;;;12.60;94.50;;;;;;5095098;28;20084;-54
2023/10/04 02:33:18;;;;;;;13.70;2.95;;;12.50;94.60;;;;;;5062172;28;20033;-57
2023/10/04 02:35:44;;;;;;;18.02;4.18;;;12.60;94.70;;;;;;5076512;28;20039;-57
2023/10/04 02:38:33;;;;;;;9.10;2.72;;;12.60;94.60;;;;;;5092939;28;20024;-54
2023/10/04 02:41:00;;;;;;;8.52;3.17;;;12.60;94.40;;;;;;5095051;28;20040;-51
2023/10/04 02:43:26;;;;;;;11.23;2.47;;;12.50;94.40;;;;;;5095489;28;20040;-55
2023/10/04 02:45:59;;;;;;;15.07;2.67;;;12.50;94.30;;;;;;5090093;28;20051;-53
2023/10/04 02:48:30;;;;;;;12.07;3.00;;;12.40;94.40;;;;;;5094360;28;20044;-55
2023/10/04 02:50:58;;;;;;;11.73;3.25;;;12.40;94.40;;;;;;5059896;28;20500;-53
2023/10/04 02:53:29;;;;;;;11.27;2.85;;;12.40;94.60;;;;;;5075223;28;20155;-50
2023/10/04 02:56:06;;;;;;;14.40;3.53;;;12.40;94.50;;;;;;5075524;28;20085;-51
2023/10/04 02:58:34;;;;;;;9.05;3.25;;;12.50;94.50;;;;;;5085040;28;20115;-55
2023/10/04 03:01:05;;;;;;;9.65;3.47;;;12.40;94.30;;;;;;5085725;28;20096;-50
2023/10/04 03:03:35;;;;;;;14.52;2.65;;;12.40;94.40;;;;;;5077323;28;20028;-49
2023/10/04 03:06:05;;;;;;;13.38;2.72;;;12.40;94.40;;;;;;5095003;28;20594;-50
2023/10/04 03:08:34;;;;;;;10.15;3.28;;;12.30;94.50;;;;;;5091948;28;20051;-50
2023/10/04 03:11:03;;;;;;;10.77;2.88;;;12.40;94.50;;;;;;5084270;28;20103;-53
2023/10/04 03:13:32;;;;;;;13.75;3.05;;;12.30;94.40;;;;;;5067692;28;20024;-52
2023/10/04 03:15:58;;;;;;;8.35;2.80;;;12.40;94.50;;;;;;5094685;28;20074;-53
2023/10/04 03:18:25;;;;;;;12.75;2.80;;;12.40;94.60;;;;;;5076572;28;20056;-54
2023/10/04 03:23:34;;;;;;;14.70;3.85;;;12.40;94.60;;;;;;5080838;28;20043;-52
2023/10/04 03:26:06;;;;;;;15.82;3.25;;;12.40;94.50;;;;;;5093759;28;20047;-51
2023/10/04 03:28:37;;;;;;;18.70;4.18;;;12.40;94.60;;;;;;5088949;28;20436;-50
2023/10/04 03:31:20;;;;;;;13.27;3.25;;;12.40;94.60;;;;;;5081028;28;20036;-53
2023/10/04 03:33:51;;;;;;;12.68;4.70;;;12.40;94.50;;;;;;5088867;28;20445;-53
2023/10/04 03:36:21;;;;;;;8.75;2.95;;;12.30;94.50;;;;;;5093760;28;20027;-54
2023/10/04 03:38:49;;;;;;;16.42;3.90;;;12.30;94.40;;;;;;5074450;28;20058;-49
2023/10/04 03:41:20;;;;;;;13.45;3.78;;;12.30;94.40;;;;;;5090297;28;20044;-54
2023/10/04 03:43:48;;;;;;;10.18;2.90;;;12.30;94.40;;;;;;5080052;28;20024;-56
2023/10/04 03:46:19;;;;;;;8.80;3.03;;;12.30;94.50;;;;;;5087771;28;20040;-56
2023/10/04 03:48:54;;;;;;;9.13;2.75;;;12.30;94.50;;;;;;5087102;28;20071;-54
2023/10/04 03:51:26;;;;;;;;;;;12.40;94.60;;;;;;5090735;28;20071;-56
2023/10/04 03:53:53;;;;;;;10.18;3.47;;;12.40;94.60;;;;;;5074408;28;20352;-55
2023/10/04 03:56:22;;;;;;;13.45;3.08;;;12.40;94.50;;;;;;5074310;28;20020;-55
2023/10/04 03:58:52;;;;;;;20.40;3.90;;;12.40;94.50;;;;;;5081240;28;20032;-54
2023/10/04 04:01:20;;;;;;;16.05;4.20;;;12.40;94.40;;;;;;5093925;28;20039;-53
2023/10/04 04:03:49;;;;;;;10.57;3.00;;;12.30;94.40;;;;;;5090361;28;20078;-54
2023/10/04 04:06:17;;;;;;;11.82;3.00;;;12.30;94.40;;;;;;5090229;28;20353;-52
2023/10/04 04:08:46;;;;;;;11.98;3.30;;;12.30;94.40;;;;;;5093975;28;20426;-55
2023/10/04 04:11:14;;;;;;;16.58;3.45;;;12.40;94.50;;;;;;5093986;28;20049;-56
2023/10/04 04:13:44;;;;;;;12.48;3.80;;;12.40;94.60;;;;;;5093743;28;20354;-55
2023/10/04 04:16:17;;;;;;;13.68;3.17;;;12.40;94.50;;;;;;5083738;28;20028;-56
2023/10/04 04:18:54;;;;;;;11.35;3.10;;;12.40;94.50;;;;;;5090558;28;20035;-52
2023/10/04 04:21:25;;;;;;;10.07;2.92;;;12.40;94.50;;;;;;5081370;28;20055;-55
2023/10/04 04:23:52;;;;;;;12.68;2.83;;;12.40;94.40;;;;;;5093968;28;20052;-51
2023/10/04 04:26:23;;;;;;;10.98;2.83;;;12.40;94.30;;;;;;5093959;28;20565;-50
2023/10/04 04:28:55;;;;;;;11.18;2.72;;;12.40;94.20;;;;;;5084759;28;20044;-53
2023/10/04 04:31:26;;;;;;;10.82;2.88;;;12.30;94.20;;;;;;5084286;28;20032;-52
2023/10/04 04:33:55;;;;;;;12.30;2.60;;;12.40;94.30;;;;;;5092602;28;20061;-50
2023/10/04 04:36:31;;;;;;;10.30;2.85;;;12.30;94.20;;;;;;5093191;28;20039;-51
2023/10/04 04:39:11;;;;;;;13.38;3.30;;;12.30;94.30;;;;;;5093209;28;20060;-52
2023/10/04 04:41:40;;;;;;;10.27;3.03;;;12.30;94.30;;;;;;5080795;28;20047;-51
2023/10/04 04:44:11;;;;;;;13.45;3.22;;;12.30;94.30;;;;;;5093638;28;20115;-53
2023/10/04 04:46:43;;;;;;;14.00;3.53;;;12.20;94.20;;;;;;5082784;28;20051;-54
2023/10/04 04:49:10;;;;;;;12.93;3.47;;;12.20;94.30;;;;;;5086342;28;20040;-53
2023/10/04 04:51:38;;;;;;;13.63;3.30;;;12.20;94.30;;;;;;5066949;28;20044;-52
2023/10/04 04:54:03;;;;;;;8.98;2.58;;;12.20;94.20;;;;;;5052729;28;20037;-49
2023/10/04 04:56:32;;;;;;;11.63;2.80;;;12.20;94.20;;;;;;5047443;28;20033;-50
2023/10/04 04:59:07;;;;;;;13.35;3.10;;;12.20;94.30;;;;;;5072689;28;20025;-48
2023/10/04 05:01:35;;;;;;;12.18;2.85;;;12.20;94.30;;;;;;5069260;28;20083;-49
2023/10/04 05:04:05;;;;;;;14.50;3.33;;;12.20;94.40;;;;;;5072465;28;20121;-51
2023/10/04 05:06:36;;;;;;;13.63;4.05;;;12.20;94.40;;;;;;5060353;28;20346;-49
2023/10/04 05:09:03;;;;;;;14.18;3.20;;;12.20;94.30;;;;;;5072673;28;20055;-49
2023/10/04 05:11:32;;;;;;;19.75;4.20;;;12.10;94.30;;;;;;5044517;28;20434;-50
2023/10/04 05:13:58;;;;;;;16.05;3.25;;;12.10;94.50;;;;;;5048019;28;20029;-50
2023/10/04 05:16:25;;;;;;;14.50;3.97;;;12.10;94.40;;;;;;5068544;28;20166;-48
2023/10/04 05:18:53;;;;;;;13.60;3.35;;;12.10;94.40;;;;;;5062408;28;20100;-53
2023/10/04 05:21:23;;;;;;;16.80;4.30;;;12.10;94.40;;;;;;5051600;28;20032;-54
2023/10/04 05:23:56;;;;;;;12.70;2.92;;;12.10;94.40;;;;;;5049137;28;20311;-50
2023/10/04 05:26:22;;;;;;;13.45;3.05;;;12.10;94.30;;;;;;5033502;28;20041;-50
2023/10/04 05:28:50;;;;;;;17.52;3.53;;;12.10;94.40;;;;;;5032013;28;20030;-54
2023/10/04 05:31:18;;;;;;;13.77;3.13;;;12.10;94.40;;;;;;5051026;28;20032;-50
2023/10/04 05:33:44;;;;;;;10.77;3.10;;;12.00;94.30;;;;;;5051898;28;20036;-49
2023/10/04 05:36:10;;;;;;;12.65;4.45;;;12.00;94.30;;;;;;5057610;28;20025;-49
2023/10/04 05:38:38;;;;;;;13.30;3.30;;;12.00;94.30;;;;;;5054245;28;20033;-52
2023/10/04 05:41:06;;;;;;;11.25;3.75;;;12.00;94.30;;;;;;5052567;28;20462;-50
2023/10/04 05:43:34;;;;;;;14.00;3.60;;;12.00;94.30;;;;;;5048493;28;20040;-54
2023/10/04 05:46:06;;;;;;;20.25;3.95;;;12.00;94.30;;;;;;5062795;28;20043;-50
2023/10/04 05:48:34;;;;;;;14.73;3.50;;;12.00;94.20;;;;;;5091489;28;20056;-48
2023/10/04 05:51:06;;;;;;;12.10;4.15;;;12.00;94.30;;;;;;5091965;28;20113;-52
2023/10/04 05:53:35;;;;;;;17.17;4.65;;;12.00;94.20;;;;;;5091103;28;20043;-54
2023/10/04 05:56:00;;;;;;;14.95;4.30;;;12.10;94.20;;;;;;5091652;28;20813;-54
2023/10/04 05:58:27;;;;;;;13.00;3.35;;;12.00;94.20;;;;;;5090818;28;20025;-52
2023/10/04 06:00:54;;;;;;;15.75;3.17;;;12.00;94.10;;;;;;5090958;28;20168;-53
2023/10/04 06:03:21;;;;;;;16.35;4.20;;;12.10;94.20;;;;;;5085927;28;20033;-50
2023/10/04 06:05:50;;;;;;;10.65;3.42;;;12.10;94.10;;;;;;5072449;28;20028;-54
2023/10/04 06:08:18;;;;;;;14.55;3.97;;;12.10;94.20;;;;;;5088699;28;20038;-53
2023/10/04 06:10:50;;;;;;;12.98;2.95;;;12.10;94.10;;;;;;5090225;28;20559;-51
2023/10/04 06:13:17;;;;;;;15.85;4.30;;;12.20;94.10;;;;;;5071056;28;20595;-51
2023/10/04 06:15:48;;;;;;;10.40;3.90;;;12.20;94.10;;;;;;5069000;28;20027;-49
2023/10/04 06:18:17;;;;;;;12.02;2.70;;;12.20;94.10;;;;;;5090897;28;20027;-55
2023/10/04 06:20:46;;;;;;;15.67;3.33;;;12.20;94.00;;;;;;5086081;28;20040;-48
2023/10/04 06:23:17;;;;;;;16.00;3.92;;;12.20;94.00;;;;;;5069363;28;20031;-50
2023/10/04 06:25:52;;;;;;;12.57;3.38;;;12.20;93.90;;;;;;5090971;28;20098;-50
2023/10/04 06:28:19;;;;;;;8.93;3.10;;;12.20;93.90;;;;;;5085104;28;20476;-50
2023/10/04 06:30:48;;;;;;;13.25;3.50;;;12.30;94.10;;;;;;5090941;28;20047;-52
2023/10/04 06:33:15;;;;;;;12.40;3.25;;;12.30;94.00;;;;;;5082269;28;20062;-49
2023/10/04 06:35:43;;;;;;;13.82;3.38;;;12.40;94.00;;;;;;5088586;28;20074;-51
2023/10/04 06:38:13;;;;;;;12.10;2.75;;;12.40;93.90;;;;;;5088040;28;20028;-51
2023/10/04 06:40:42;;;;;;;13.80;3.20;;;12.40;93.90;;;;;;5090904;28;20166;-49
2023/10/04 06:43:09;;;;;;;13.43;3.92;;;12.50;93.80;;;;;;5070237;28;20032;-51
2023/10/04 06:45:47;;;;;;;10.20;3.45;;;12.50;93.80;;;;;;5090313;28;20036;-50
2023/10/04 06:48:15;;;;;;;11.07;3.05;;;12.60;93.80;;;;;;5089388;28;20024;-49
2023/10/04 06:50:49;;;;;;;8.38;3.30;;;12.60;93.70;;;;;;5074467;28;20759;-50
2023/10/04 06:53:17;;;;;;;13.57;2.95;;;12.60;93.60;;;;;;5080740;28;20457;-50
2023/10/04 06:55:45;;;;;;;18.15;3.35;;;12.70;93.70;;;;;;5089173;28;20076;-53
2023/10/04 06:58:13;;;;;;;21.38;3.95;;;12.70;93.50;;;;;;5089000;28;20591;-52
2023/10/04 07:00:44;;;;;;;12.50;3.53;;;12.80;93.50;;;;;;5069633;28;20456;-52
2023/10/04 07:03:10;;;;;;;13.32;3.63;;;12.80;93.60;;;;;;5087366;28;20389;-51
2023/10/04 07:05:39;;;;;;;16.67;4.55;;;12.80;93.30;;;;;;5088736;28;20463;-47
2023/10/04 07:08:17;;;;;;;14.50;3.40;;;12.90;93.40;;;;;;5081835;28;20028;-49
2023/10/04 07:10:44;;;;;;;13.80;4.05;;;12.90;93.40;;;;;;5061784;28;20040;-51
2023/10/04 07:13:12;;;;;;;14.02;3.30;;;12.90;93.30;;;;;;5076888;28;20035;-48
2023/10/04 07:15:39;;;;;;;9.52;3.03;;;13.00;93.00;;;;;;5073013;28;20028;-49
2023/10/04 07:18:07;;;;;;;10.35;3.25;;;13.10;93.10;;;;;;5093382;28;20122;-51
2023/10/04 07:20:35;;;;;;;13.75;3.50;;;13.10;93.00;;;;;;5074211;28;20032;-47
2023/10/04 07:23:03;;;;;;;13.68;3.65;;;13.20;92.90;;;;;;5076049;28;20024;-49
2023/10/04 07:25:34;;;;;;;12.65;3.35;;;13.20;92.70;;;;;;5070095;28;20033;-50
2023/10/04 07:28:04;;;;;;;8.57;2.78;;;13.30;92.50;;;;;;5091077;28;20120;-50
2023/10/04 07:30:31;;;;;;;11.45;4.68;;;13.40;92.70;;;;;;5090275;28;20024;-47
2023/10/04 07:33:01;;;;;;;14.27;3.85;;;13.40;92.30;;;;;;5090100;28;20390;-47
2023/10/04 07:35:30;;;;;;;13.18;2.95;;;13.40;92.10;;;;;;5092789;28;20029;-48
2023/10/04 07:37:58;;;;;;;20.40;6.90;;;13.50;92.20;;;;;;5093298;28;20034;-47
2023/10/04 07:40:26;;;;;;;16.65;5.63;;;13.60;91.90;;;;;;5093377;28;20050;-50
2023/10/04 07:42:54;;;;;;;19.75;7.63;;;13.70;91.80;;;;;;5091921;28;20056;-49
2023/10/04 07:45:28;;;;;;;13.98;6.32;;;13.90;91.70;;;;;;5088503;28;20053;-50
2023/10/04 07:47:56;;;;;;;15.27;3.10;;;14.10;91.60;;;;;;5089532;28;20039;-48
2023/10/04 07:50:25;;;;;;;15.48;7.38;;;14.30;91.20;;;;;;5092287;28;20089;-46
2023/10/04 07:52:59;;;;;;;14.57;3.53;;;14.40;90.30;;;;;;5092968;28;20112;-50
2023/10/04 07:55:26;;;;;;;10.52;3.70;;;14.40;89.70;;;;;;5058818;28;20028;-49
2023/10/04 07:58:02;;;;;;;13.38;3.50;;;14.30;89.70;;;;;;5062100;28;20024;-49
2023/10/04 08:00:29;;;;;;;11.68;3.40;;;14.30;89.70;;;;;;5090621;28;20036;-51
2023/10/04 08:02:57;;;;;;;14.77;4.00;;;14.40;89.80;;;;;;5092893;28;20032;-50
2023/10/04 08:05:34;;;;;;;9.60;2.95;;;14.50;89.60;;;;;;5056148;28;20438;-49
2023/10/04 08:08:10;;;;;;;14.93;3.58;;;14.50;89.70;;;;;;5098214;28;20403;-51
2023/10/04 08:10:39;;;;;;;13.27;3.97;;;14.70;89.20;;;;;;5070782;28;20192;-53
2023/10/04 08:13:07;;;;;;;;;;;14.70;89.10;;;;;;5074259;28;20029;-51
2023/10/04 08:15:36;;;;;;;13.02;3.83;;;14.70;89.00;;;;;;5090565;28;20325;-52
2023/10/04 08:18:04;;;;;;;8.98;3.10;;;14.80;89.10;;;;;;5074645;28;20683;-49
2023/10/04 08:20:32;;;;;;;12.68;3.20;;;14.60;88.70;;;;;;5080027;28;20055;-49
2023/10/04 08:23:02;;;;;;;8.63;3.00;;;14.90;89.40;;;;;;5073519;28;20046;-52
2023/10/04 08:25:29;;;;;;;14.32;3.50;;;15.10;89.10;;;;;;5084537;28;20101;-54
2023/10/04 08:27:58;;;;;;;11.20;3.33;;;15.10;88.50;;;;;;5073305;28;20032;-50
2023/10/04 08:30:30;;;;;;;15.13;3.20;;;15.40;88.40;;;;;;5092777;28;20042;-52
2023/10/04 08:32:59;;;;;;;12.88;3.72;;;15.60;88.10;;;;;;5074395;28;20107;-56
2023/10/04 08:35:35;;;;;;;16.80;4.32;;;15.70;87.70;;;;;;5081447;28;20023;-56
2023/10/04 08:38:06;;;;;;;14.70;3.80;;;15.80;87.10;;;;;;5092956;28;20021;-56
2023/10/04 08:40:42;;;;;;;20.25;4.78;;;15.90;87.30;;;;;;5074337;28;20032;-56
2023/10/04 08:43:17;;;;;;;14.93;4.68;;;15.90;86.40;;;;;;5091972;28;20561;-56
2023/10/04 08:45:48;;;;;;;13.38;4.22;;;16.00;86.20;;;;;;5092008;28;20035;-53
2023/10/04 08:48:18;;;;;;;16.85;4.50;;;16.00;85.50;;;;;;5092175;28;20051;-56
2023/10/04 08:51:03;;;;;;;12.88;3.83;;;16.00;84.10;;;;;;5075073;28;20121;-56
2023/10/04 08:53:49;;;;;;;15.20;4.07;;;16.10;84.80;;;;;;5092943;28;20131;-56
2023/10/04 08:56:18;;;;;;;10.60;3.92;;;16.40;85.30;;;;;;5090616;28;20500;-51
2023/10/04 08:58:46;;;;;;;12.02;3.58;;;16.40;83.80;;;;;;5086721;28;20036;-54
2023/10/04 09:01:31;;;;;;;9.68;3.53;;;16.50;84.50;;;;;;5083574;28;20036;-55
2023/10/04 09:04:03;;;;;;;8.18;2.80;;;16.70;84.70;;;;;;5082687;28;20530;-56
2023/10/04 09:06:29;;;;;;;9.77;2.85;;;17.10;84.70;;;;;;5086604;28;20040;-53
2023/10/04 09:08:58;;;;;;;15.02;3.90;;;17.20;82.40;;;;;;5091154;28;20020;-55
2023/10/04 09:11:26;;;;;;;;;;;17.30;81.60;;;;;;5092426;28;20686;-54
2023/10/04 09:13:55;;;;;;;8.48;3.10;;;17.20;81.70;;;;;;5076422;28;19916;-53
2023/10/04 09:16:31;;;;;;;13.27;4.30;;;17.30;82.00;;;;;;5092548;28;20024;-53
2023/10/04 09:19:21;;;;;;;12.20;3.90;;;17.40;81.00;;;;;;5073287;28;20043;-54
2023/10/04 09:22:02;;;;;;;10.40;3.30;;;17.40;81.00;;;;;;5090404;28;20534;-51
2023/10/04 09:24:30;;;;;;;12.00;4.57;;;17.40;80.60;;;;;;5091921;28;20044;-51
2023/10/04 09:26:57;;;;;;;11.00;4.00;;;17.40;80.70;;;;;;5076498;28;20123;-55
2023/10/04 09:29:39;;;;;;;17.27;3.97;;;17.50;80.70;;;;;;5089762;28;20397;-51
2023/10/04 09:32:07;;;;;;;21.20;4.40;;;17.60;79.10;;;;;;5074513;28;20116;-54
2023/10/04 09:34:34;;;;;;;18.95;4.45;;;17.60;79.40;;;;;;5077844;28;20022;-52
2023/10/04 09:37:19;;;;;;;13.45;3.83;;;17.50;78.10;;;;;;5077176;28;20031;-53
2023/10/04 09:40:23;;;;;;;11.77;4.10;;;17.40;78.60;;;;;;5090039;28;20050;-51
2023/10/04 09:42:56;;;;;;;12.20;4.32;;;17.30;80.00;;;;;;5087690;28;20028;-50
2023/10/04 09:45:27;;;;;;;10.48;4.20;;;17.20;79.40;;;;;;5090285;28;20123;-54
2023/10/04 09:48:02;;;;;;;14.00;5.50;;;17.30;79.50;;;;;;5074689;28;20028;-52
2023/10/04 09:50:29;;;;;;;15.27;5.75;;;17.10;79.70;;;;;;5090323;28;20365;-53
2023/10/04 09:52:55;;;;;;;14.55;4.07;;;17.10;79.70;;;;;;5089993;28;20028;-52
2023/10/04 09:55:26;;;;;;;13.52;4.57;;;17.30;79.40;;;;;;5091416;28;20115;-53
2023/10/04 09:57:55;;;;;;;14.43;4.75;;;17.30;79.30;;;;;;5072580;28;20461;-52
2023/10/04 10:00:29;;;;;;;11.97;4.07;;;17.40;78.80;;;;;;5090659;28;20036;-53
2023/10/04 10:03:00;;;;;;;11.88;4.85;;;17.40;79.40;;;;;;5092037;28;20366;-52
2023/10/04 10:05:36;;;;;;;15.80;4.95;;;17.40;78.90;;;;;;5085660;28;20037;-51
2023/10/04 10:08:11;;;;;;;12.00;4.75;;;17.50;78.20;;;;;;5090824;28;20036;-52
2023/10/04 10:10:44;;;;;;;11.43;4.97;;;17.50;76.80;;;;;;5088664;28;20032;-54
2023/10/04 10:13:13;;;;;;;13.63;4.00;;;17.60;77.50;;;;;;5089723;28;20061;-48
2023/10/04 10:15:41;;;;;;;12.15;5.03;;;17.60;76.80;;;;;;5087621;28;20027;-48
2023/10/04 10:18:08;;;;;;;10.82;4.53;;;17.60;75.90;;;;;;5081001;28;20510;-51
2023/10/04 10:20:39;;;;;;;12.73;4.63;;;17.40;76.60;;;;;;5087887;28;20032;-50
2023/10/04 10:23:09;;;;;;;;;;;17.10;77.40;;;;;;5074601;28;20036;-53
2023/10/04 10:25:38;;;;;;;13.15;4.82;;;17.30;77.40;;;;;;5088859;28;19939;-51
2023/10/04 10:28:21;;;;;;;15.65;4.82;;;17.20;76.20;;;;;;5091480;28;20060;-51
2023/10/04 10:30:59;;;;;;;12.10;4.63;;;17.30;76.70;;;;;;5068914;28;20491;-48
2023/10/04 10:33:28;;;;;;;17.92;5.13;;;17.10;76.60;;;;;;5071791;28;20036;-49
2023/10/04 10:36:01;;;;;;;12.55;4.57;;;16.90;77.10;;;;;;5073290;28;20107;-48
2023/10/04 10:38:43;;;;;;;12.15;4.53;;;16.90;78.50;;;;;;5071655;28;20075;-52
2023/10/04 10:41:28;;;;;;;12.90;4.60;;;16.80;78.50;;;;;;5091871;28;20081;-52
2023/10/04 10:44:33;;;;;;;11.48;4.22;;;16.80;79.20;;;;;;5066309;28;20096;-55
2023/10/04 10:47:25;;;;;;;12.48;5.53;;;16.70;78.70;;;;;;5089225;28;20071;-48
2023/10/04 10:49:56;;;;;;;14.95;5.50;;;16.60;78.50;;;;;;5089318;28;20482;-52
2023/10/04 10:52:50;;;;;;;12.30;5.05;;;16.70;78.90;;;;;;5084429;28;20032;-51
2023/10/04 10:55:18;;;;;;;14.90;6.20;;;16.80;79.20;;;;;;5083627;28;20032;-51
2023/10/04 10:57:49;;;;;;;14.80;5.55;;;16.90;78.70;;;;;;5089295;28;20039;-51
2023/10/04 11:02:45;;;;;;;13.38;5.03;;;16.90;77.70;;;;;;5092053;28;20048;-50
2023/10/04 11:05:16;;;;;;;9.82;4.28;;;16.90;77.00;;;;;;5071677;28;20032;-51
2023/10/04 11:07:46;;;;;;;13.55;4.88;;;16.90;77.50;;;;;;5094234;28;20043;-53
2023/10/04 11:10:17;;;;;;;19.52;6.20;;;16.90;77.70;;;;;;5090233;28;20039;-49
2023/10/04 11:12:55;;;;;;;9.55;4.40;;;17.00;77.90;;;;;;5094839;28;20280;-48
2023/10/04 11:15:29;;;;;;;15.23;5.30;;;17.20;77.40;;;;;;5095011;28;20086;-54
2023/10/04 11:17:56;;;;;;;13.95;4.03;;;17.40;77.50;;;;;;5090650;28;20035;-49
2023/10/04 11:20:23;;;;;;;10.30;4.15;;;17.60;76.30;;;;;;5081276;28;20059;-48
2023/10/04 11:22:50;;;;;;;11.82;4.90;;;17.80;75.80;;;;;;5066193;28;20029;-54
2023/10/04 11:25:17;;;;;;;13.90;4.97;;;17.60;74.40;;;;;;5083607;28;20039;-51
2023/10/04 11:27:51;;;;;;;12.48;4.43;;;17.70;75.40;;;;;;5088516;28;20032;-53
2023/10/04 11:30:21;;;;;;;12.82;4.40;;;17.50;74.10;;;;;;5075158;28;20662;-48
2023/10/04 11:32:50;;;;;;;12.45;4.90;;;17.40;74.70;;;;;;5090307;28;20324;-52
2023/10/04 11:35:19;;;;;;;12.32;4.40;;;17.60;75.30;;;;;;5094858;28;20063;-50
2023/10/04 11:38:12;;;;;;;11.48;4.30;;;17.60;74.40;;;;;;5076194;28;20036;-51
2023/10/04 11:40:38;;;;;;;14.93;4.72;;;17.80;75.50;;;;;;5070700;28;20122;-48
2023/10/04 11:43:08;;;;;;;11.38;5.47;;;17.90;75.80;;;;;;5094160;28;20165;-50
2023/10/04 11:45:37;;;;;;;11.82;4.88;;;17.90;75.50;;;;;;5092974;28;20058;-50
2023/10/04 11:48:08;;;;;;;13.80;5.25;;;17.80;74.50;;;;;;5093258;28;20028;-51
2023/10/04 11:50:55;;;;;;;10.05;4.43;;;17.70;75.90;;;;;;5085096;28;20099;-54
2023/10/04 11:53:39;;;;;;;16.25;5.40;;;17.60;75.70;;;;;;5093361;28;20034;-48
2023/10/04 11:56:11;;;;;;;11.05;4.10;;;17.50;75.70;;;;;;5074087;28;20111;-49
2023/10/04 11:58:49;;;;;;;9.65;4.22;;;17.40;75.80;;;;;;5093676;28;20311;-51
2023/10/04 12:01:25;;;;;;;8.52;3.92;;;17.40;75.10;;;;;;5093575;28;20085;-49
2023/10/04 12:03:56;;;;;;;11.50;5.20;;;17.30;76.20;;;;;;5093625;28;20102;-50
2023/10/04 12:06:31;;;;;;;12.88;4.60;;;17.20;76.40;;;;;;5088997;28;20036;-54
2023/10/04 12:08:58;;;;;;;15.88;4.05;;;17.10;76.70;;;;;;5083119;28;20050;-48
2023/10/04 12:11:33;;;;;;;10.82;4.55;;;17.00;77.30;;;;;;5083597;28;20109;-53
2023/10/04 12:14:04;;;;;;;10.80;4.90;;;16.90;77.70;;;;;;5094329;28;20028;-50
2023/10/04 12:16:42;;;;;;;19.02;5.53;;;16.90;77.50;;;;;;5085470;28;20186;-54
2023/10/04 12:19:12;;;;;;;11.52;4.30;;;16.80;77.80;;;;;;5093325;28;20036;-53
2023/10/04 12:21:40;;;;;;;16.13;5.38;;;16.80;78.30;;;;;;5092823;28;20036;-53
2023/10/04 12:24:09;;;;;;;11.27;4.95;;;16.90;78.60;;;;;;5089983;28;20047;-48
2023/10/04 12:26:37;;;;;;;12.57;5.35;;;16.90;78.20;;;;;;5093494;28;20035;-48
2023/10/04 12:29:07;;;;;;;9.70;4.03;;;16.90;78.60;;;;;;5093185;28;20040;-51
2023/10/04 12:31:34;;;;;;;11.45;4.75;;;17.10;78.50;;;;;;5090834;28;20042;-49
2023/10/04 12:34:06;;;;;;;13.10;4.75;;;17.10;77.90;;;;;;5081747;28;20029;-51
2023/10/04 12:36:36;;;;;;;12.15;4.65;;;17.10;77.80;;;;;;5088050;28;20016;-49
2023/10/04 12:39:06;;;;;;;12.35;4.75;;;17.30;78.70;;;;;;5093110;28;20123;-53
2023/10/04 12:41:37;;;;;;;12.48;4.78;;;17.40;78.30;;;;;;5082750;28;20754;-50
2023/10/04 12:44:08;;;;;;;15.30;6.00;;;17.40;78.10;;;;;;5093036;28;20040;-49
2023/10/04 12:46:38;;;;;;;10.77;4.38;;;17.40;77.40;;;;;;5090387;28;20119;-48
2023/10/04 12:49:07;;;;;;;11.85;4.60;;;17.50;76.70;;;;;;5088752;28;20035;-48
2023/10/04 12:51:39;;;;;;;11.07;4.45;;;17.50;75.80;;;;;;5092060;28;20032;-49
2023/10/04 12:54:09;;;;;;;13.50;6.25;;;17.50;75.20;;;;;;5090339;28;20137;-54
2023/10/04 12:56:51;;;;;;;16.67;6.45;;;17.50;74.50;;;;;;5092449;28;20586;-51
2023/10/04 12:59:19;;;;;;;12.80;5.60;;;17.40;73.50;;;;;;5086736;28;20575;-50
2023/10/04 13:01:45;;;;;;;15.95;5.13;;;17.40;74.10;;;;;;5072549;28;20100;-53